CheckWX is a tool to help pilots better visualize weather data.  It is not intended as a substitute for an official pre-flight weather briefing.

17:58:19 UTC

KOFP METAR
Hanover County Municipal Airport
Richmond/Ashland, Virginia, USA
Current

1 hour ago

KOFP 201654Z AUTO 06003KT 10SM OVC090 05/M04 A3046 RMK AO2 SLP315 T00501044
Observed
Feb-20 @ 16:54 UTC
Wind
  • 060° at 3 KTS
Visibility
10 SM
Flight Rules
VFR
Cloud Levels
  • Overcast at 9,000' AGL
Temperature
C / 41°F
Dewpoint
-4°C / 25°F
Humidity
53%
Altimeter
30.46" Hg
Pressure
1031.52 hPa
Previous

2 hours ago

KOFP 201554Z AUTO 02003KT 10SM OVC095 04/M06 A3048 RMK AO2 SLP321 T00441056
Observed
Feb-20 @ 15:54 UTC
Wind
  • 020° at 3 KTS
Visibility
10 SM
Flight Rules
VFR
Cloud Levels
  • Overcast at 9,500' AGL
Temperature
C / 39°F
Dewpoint
-6°C / 21°F
Humidity
48%
Altimeter
30.48" Hg
Pressure
1032.22 hPa
Previous

3 hours ago

KOFP 201454Z AUTO VRB03KT 10SM OVC100 03/M06 A3048 RMK AO2 SLP324 T00331061 51010
Observed
Feb-20 @ 14:54 UTC
Wind
  • Variable at 3 KTS
Visibility
10 SM
Flight Rules
VFR
Cloud Levels
  • Overcast at 10,000' AGL
Temperature
C / 37°F
Dewpoint
-6°C / 21°F
Humidity
52%
Altimeter
30.48" Hg
Pressure
1032.22 hPa